Time;durP1;ratioP1;P1;durP2;ratioP2;P2;SDS_P1;SDS_P2;PMS_P1;PMS_P2;Temp;Humidity;BMP_temperature;BMP_pressure;BME280_temperature;BME280_humidity;BME280_pressure;Samples;Min_cycle;Max_cycle;Signal;HPM_P1;HPM_P2
2021/12/18 07:30:35;;;;;;;59.53;32.67;;;;;;;0.31;100.00;99766.91;1748290;80;20963;-68
2021/12/18 07:33:03;;;;;;;56.10;30.10;;;;;;;0.30;100.00;99771.84;1728369;81;21054;-69
2021/12/18 07:35:30;;;;;;;29.77;17.60;;;;;;;0.29;100.00;99774.16;1743025;82;21014;-69
2021/12/18 07:37:58;;;;;;;99.03;52.97;;;;;;;0.30;100.00;99776.70;1735390;82;20943;-71
2021/12/18 07:40:25;;;;;;;65.57;36.83;;;;;;;0.30;100.00;99771.84;1733061;82;21494;-72
2021/12/18 07:42:52;;;;;;;53.07;31.60;;;;;;;0.27;100.00;99773.42;1733338;82;21038;-70
2021/12/18 07:45:19;;;;;;;60.53;37.33;;;;;;;0.26;100.00;99779.20;1731646;82;20987;-70
2021/12/18 07:47:46;;;;;;;63.23;42.33;;;;;;;0.28;100.00;99783.91;1720951;82;21043;-68
2021/12/18 07:50:18;;;;;;;53.67;33.47;;;;;;;0.29;100.00;99784.30;1732636;82;21015;-67
2021/12/18 07:52:41;;;;;;;45.47;28.40;;;;;;;0.32;100.00;99786.74;1712050;82;20991;-69
2021/12/18 07:55:09;;;;;;;47.63;29.70;;;;;;;0.34;100.00;99780.83;1729051;82;21034;-69
2021/12/18 07:57:36;;;;;;;43.20;24.07;;;;;;;0.35;100.00;99783.87;1734621;82;20971;-68
2021/12/18 08:00:09;;;;;;;48.00;31.60;;;;;;;0.38;100.00;99786.28;1745189;82;21491;-69
2021/12/18 08:02:42;;;;;;;48.68;30.43;;;;;;;0.41;100.00;99788.34;1728532;82;21038;-68
2021/12/18 08:05:09;;;;;;;41.73;25.27;;;;;;;0.43;100.00;99788.62;1741237;82;20982;-70
2021/12/18 08:07:36;;;;;;;43.60;27.23;;;;;;;0.46;100.00;99788.86;1731568;82;20936;-68
2021/12/18 08:10:04;;;;;;;40.67;26.03;;;;;;;0.49;100.00;99786.82;1734241;81;21011;-68
2021/12/18 08:12:39;;;;;;;41.13;26.13;;;;;;;0.52;100.00;99787.09;1730060;82;21003;-73
2021/12/18 08:15:07;;;;;;;39.57;21.97;;;;;;;0.56;100.00;99784.08;1688591;83;21484;-69
2021/12/18 08:17:34;;;;;;;42.57;29.07;;;;;;;0.60;100.00;99783.86;1686173;84;20982;-69
2021/12/18 08:20:04;;;;;;;48.27;29.63;;;;;;;0.59;100.00;99784.34;1734568;82;20982;-69
2021/12/18 08:22:37;;;;;;;40.30;25.17;;;;;;;0.60;100.00;99778.53;1723622;82;21007;-68
2021/12/18 08:25:05;;;;;;;39.57;24.37;;;;;;;0.60;100.00;99776.71;1725522;82;21453;-68
2021/12/18 08:27:32;;;;;;;43.00;23.60;;;;;;;0.61;100.00;99777.59;1743028;82;21029;-69
2021/12/18 08:29:59;;;;;;;44.87;26.30;;;;;;;0.62;100.00;99781.92;1727567;82;21452;-68
2021/12/18 08:32:26;;;;;;;36.77;21.30;;;;;;;0.63;100.00;99773.83;1743242;81;21018;-69
2021/12/18 08:34:53;;;;;;;36.37;19.20;;;;;;;0.67;100.00;99781.11;1748790;81;20984;-69
2021/12/18 08:37:20;;;;;;;44.47;24.33;;;;;;;0.70;100.00;99783.55;1746569;81;20975;-69
2021/12/18 08:39:48;;;;;;;43.43;25.30;;;;;;;0.71;100.00;99775.45;1747909;80;21017;-69
2021/12/18 08:42:15;;;;;;;42.33;24.30;;;;;;;0.72;100.00;99789.11;1752906;80;21528;-70
2021/12/18 08:44:42;;;;;;;33.40;16.57;;;;;;;0.78;100.00;99778.52;1745246;81;20995;-68
2021/12/18 08:47:10;;;;;;;38.27;20.17;;;;;;;0.79;100.00;99786.84;1745025;82;20991;-68
2021/12/18 08:49:40;;;;;;;36.17;17.53;;;;;;;0.80;100.00;99784.56;1743994;82;21027;-69
2021/12/18 08:52:07;;;;;;;26.20;14.10;;;;;;;0.79;100.00;99780.69;1743458;82;20991;-69
2021/12/18 08:54:34;;;;;;;46.80;23.73;;;;;;;0.81;100.00;99784.08;1720276;82;20948;-69
2021/12/18 08:57:01;;;;;;;42.73;20.73;;;;;;;0.83;100.00;99781.65;1743076;82;20978;-70
2021/12/18 08:59:28;;;;;;;29.73;16.00;;;;;;;0.85;100.00;99783.73;1724862;82;21484;-69
2021/12/18 09:01:55;;;;;;;34.47;17.67;;;;;;;0.88;100.00;99779.98;1741078;82;21014;-69
2021/12/18 09:04:22;;;;;;;46.20;26.57;;;;;;;0.90;100.00;99790.91;1741759;82;21028;-69
2021/12/18 09:06:49;;;;;;;40.00;22.20;;;;;;;0.93;100.00;99780.48;1736191;81;21661;-70
2021/12/18 09:09:15;;;;;;;37.27;21.80;;;;;;;0.95;100.00;99782.55;1746772;81;20983;-69
2021/12/18 09:11:48;;;;;;;66.33;42.20;;;;;;;0.95;100.00;99793.20;1743232;81;21045;-70
2021/12/18 09:14:15;;;;;;;68.70;38.10;;;;;;;0.97;100.00;99789.09;1744366;80;21015;-68
2021/12/18 09:16:43;;;;;;;52.83;33.23;;;;;;;1.00;100.00;99786.20;1747402;80;21007;-70
2021/12/18 09:19:10;;;;;;;36.93;22.73;;;;;;;1.01;100.00;99790.09;1746674;81;21022;-69
2021/12/18 09:21:37;;;;;;;57.97;38.17;;;;;;;1.03;100.00;99795.30;1752369;81;20987;-68
2021/12/18 09:24:06;;;;;;;45.30;27.90;;;;;;;1.00;100.00;99796.86;1749286;80;21026;-69
2021/12/18 09:26:33;;;;;;;67.60;40.80;;;;;;;0.99;100.00;99805.30;1738928;81;21030;-69
2021/12/18 09:29:01;;;;;;;75.10;44.73;;;;;;;0.99;100.00;99803.13;1744219;81;21464;-68
2021/12/18 09:31:28;;;;;;;53.20;35.93;;;;;;;1.01;100.00;99803.41;1754581;80;20998;-68
2021/12/18 09:33:55;;;;;;;36.70;22.20;;;;;;;1.03;100.00;99804.63;1764202;81;21444;-69
2021/12/18 09:36:22;;;;;;;57.80;39.80;;;;;;;1.03;100.00;99804.13;1767361;81;21534;-67
2021/12/18 09:38:49;;;;;;;44.87;29.53;;;;;;;1.02;100.00;99809.08;1762020;81;21030;-68
2021/12/18 09:41:16;;;;;;;48.20;30.47;;;;;;;1.03;100.00;99815.27;1754135;81;20999;-67
2021/12/18 09:43:42;;;;;;;105.93;65.90;;;;;;;1.03;100.00;99817.45;1761053;80;20956;-69
2021/12/18 09:46:12;;;;;;;92.77;57.20;;;;;;;1.02;100.00;99813.07;1757575;81;20975;-70
2021/12/18 09:48:42;;;;;;;92.30;64.63;;;;;;;1.04;100.00;99820.45;1742378;81;21006;-67
2021/12/18 09:51:21;;;;;;;72.73;50.43;;;;;;;1.05;100.00;99814.18;1763774;80;21014;-68
2021/12/18 09:53:43;;;;;;;45.97;28.70;;;;;;;1.05;100.00;99818.66;1752964;80;20991;-67
2021/12/18 09:56:10;;;;;;;34.37;23.13;;;;;;;1.06;100.00;99816.35;1753893;80;21537;-66
2021/12/18 09:58:36;;;;;;;32.33;19.13;;;;;;;1.08;100.00;99817.95;1747964;81;21015;-68
2021/12/18 10:01:03;;;;;;;45.23;29.90;;;;;;;1.10;100.00;99813.35;1751213;81;21068;-68
2021/12/18 10:03:53;;;;;;;33.10;19.13;;;;;;;1.14;100.00;99816.63;1734021;81;21027;-67
2021/12/18 10:06:42;;;;;;;45.70;27.23;;;;;;;1.17;100.00;99812.88;1718021;82;21147;-67
2021/12/18 10:09:12;;;;;;;66.57;48.50;;;;;;;1.21;100.00;99815.69;1726941;81;21034;-68
2021/12/18 10:11:53;;;;;;;65.60;43.60;;;;;;;1.25;100.00;99817.14;1726592;81;21030;-67
2021/12/18 10:14:35;;;;;;;55.33;35.57;;;;;;;1.26;100.00;99818.86;1745990;81;21022;-67
2021/12/18 10:17:03;;;;;;;48.33;30.57;;;;;;;1.25;100.00;99824.64;1730358;81;20975;-67
2021/12/18 10:19:36;;;;;;;75.97;46.00;;;;;;;1.25;100.00;99830.47;1730472;82;21042;-66
2021/12/18 10:22:06;;;;;;;69.82;48.23;;;;;;;1.25;100.00;99835.30;1720023;82;21551;-68
2021/12/18 10:24:36;;;;;;;63.57;46.53;;;;;;;1.23;100.00;99839.06;1698191;83;21018;-67
2021/12/18 10:27:21;;;;;;;52.10;37.77;;;;;;;1.22;100.00;99842.67;1720990;81;21101;-66
2021/12/18 10:29:51;;;;;;;40.83;26.70;;;;;;;1.20;100.00;99842.78;1728997;81;20994;-67
2021/12/18 10:32:20;;;;;;;43.37;27.87;;;;;;;1.17;100.00;99847.50;1722463;83;20971;-68
2021/12/18 10:34:54;;;;;;;28.83;16.73;;;;;;;1.14;100.00;99846.77;1714499;81;21038;-68
2021/12/18 10:37:29;;;;;;;32.53;17.57;;;;;;;1.12;100.00;99846.53;1718618;83;21010;-66
2021/12/18 10:40:04;;;;;;;51.47;28.53;;;;;;;1.10;100.00;99849.30;1716185;81;21027;-68
2021/12/18 10:42:40;;;;;;;47.83;24.13;;;;;;;1.11;100.00;99856.80;1723216;81;20986;-67
2021/12/18 10:45:23;;;;;;;34.07;19.40;;;;;;;1.11;100.00;99852.81;1687051;83;20999;-68
2021/12/18 10:48:14;;;;;;;25.37;14.65;;;;;;;1.10;100.00;99855.96;1686922;84;21027;-68
2021/12/18 10:50:49;;;;;;;29.77;17.60;;;;;;;1.07;100.00;99861.51;1736920;81;20979;-68
2021/12/18 10:53:24;;;;;;;23.57;14.10;;;;;;;1.06;100.00;99865.61;1721885;81;21050;-66
2021/12/18 10:55:59;;;;;;;26.50;16.00;;;;;;;1.02;100.00;99863.66;1735008;81;21487;-66
2021/12/18 10:58:35;;;;;;;61.17;34.83;;;;;;;0.99;100.00;99863.88;1700732;83;21153;-68
2021/12/18 11:01:11;;;;;;;137.53;78.17;;;;;;;0.97;100.00;99864.48;1726564;82;21015;-67
2021/12/18 11:03:43;;;;;;;86.40;45.97;;;;;;;0.97;100.00;99867.64;1736859;80;21045;-67
2021/12/18 11:06:25;;;;;;;62.67;33.47;;;;;;;0.98;100.00;99865.36;1704942;83;20993;-67
2021/12/18 11:09:12;;;;;;;40.45;22.05;;;;;;;1.00;100.00;99871.41;1704822;83;21070;-67
2021/12/18 11:14:38;;;;;;;32.73;17.73;;;;;;;1.06;100.00;99866.48;1694029;83;20988;-69
2021/12/18 11:17:11;;;;;;;36.17;21.53;;;;;;;1.09;100.00;99870.23;1704381;83;20994;-69
2021/12/18 11:19:46;;;;;;;31.40;20.27;;;;;;;1.12;100.00;99870.50;1698352;84;21011;-67
2021/12/18 11:22:16;;;;;;;25.23;13.65;;;;;;;1.13;100.00;99878.84;1689517;83;21069;-66
2021/12/18 11:24:51;;;;;;;20.33;10.07;;;;;;;1.14;100.00;99876.55;1672103;85;21006;-71
2021/12/18 11:27:19;;;;;;;16.57;8.80;;;;;;;1.13;100.00;99877.05;1605248;88;21146;-68
2021/12/18 11:30:03;;;;;;;15.13;7.30;;;;;;;1.09;100.00;99876.05;1590792;89;21062;-68
2021/12/18 11:32:33;;;;;;;46.63;21.63;;;;;;;1.06;100.00;99877.59;1540960;92;21123;-70
2021/12/18 11:35:04;;;;;;;22.03;12.50;;;;;;;1.05;100.00;99879.42;1531459;93;21082;-69
2021/12/18 11:37:43;;;;;;;19.60;11.60;;;;;;;1.05;100.00;99884.75;1526995;92;21054;-67
2021/12/18 11:40:14;;;;;;;21.70;12.40;;;;;;;1.07;100.00;99882.81;1518488;94;21051;-68
2021/12/18 11:42:42;;;;;;;21.27;13.60;;;;;;;1.09;100.00;99878.22;1528217;94;21150;-67
2021/12/18 11:45:10;;;;;;;33.53;21.40;;;;;;;1.09;100.00;99872.89;1532063;93;21168;-67
2021/12/18 11:47:41;;;;;;;31.93;19.23;;;;;;;1.07;100.00;99869.50;1538755;93;21094;-67
2021/12/18 11:50:27;;;;;;;50.90;23.97;;;;;;;1.08;100.00;99874.33;1536372;92;21066;-67
2021/12/18 11:53:11;;;;;;;36.30;19.70;;;;;;;1.08;100.00;99875.20;1536636;92;21070;-68
2021/12/18 11:55:55;;;;;;;56.37;29.10;;;;;;;1.07;100.00;99871.32;1460637;97;21085;-67
2021/12/18 11:58:32;;;;;;;37.73;19.60;;;;;;;1.07;100.00;99873.98;1462273;98;21098;-67
2021/12/18 12:01:05;;;;;;;24.83;11.77;;;;;;;1.08;100.00;99873.00;1435872;100;21152;-68
2021/12/18 12:03:53;;;;;;;26.23;14.27;;;;;;;1.08;100.00;99865.89;1428987;96;21610;-67
2021/12/18 12:06:36;;;;;;;30.60;15.10;;;;;;;1.08;100.00;99875.20;1485618;96;21605;-69
2021/12/18 12:09:33;;;;;;;24.98;11.68;;;;;;;1.06;100.00;99862.49;1495427;95;21110;-67
2021/12/18 12:12:01;;;;;;;22.87;11.20;;;;;;;1.03;100.00;99868.53;1488140;96;21085;-68
2021/12/18 12:14:36;;;;;;;25.97;15.17;;;;;;;1.03;100.00;99865.38;1484716;96;21022;-69
2021/12/18 12:17:21;;;;;;;62.03;35.23;;;;;;;1.04;100.00;99868.88;1486941;96;21115;-67
2021/12/18 12:19:48;;;;;;;124.00;54.83;;;;;;;1.01;100.00;99873.09;1486473;96;21193;-69
2021/12/18 12:22:48;;;;;;;70.77;41.93;;;;;;;0.98;100.00;99871.52;1500568;95;21112;-68
2021/12/18 12:25:17;;;;;;;53.63;28.93;;;;;;;0.94;100.00;99881.55;1481343;97;21106;-66
2021/12/18 12:27:52;;;;;;;42.83;25.70;;;;;;;0.91;100.00;99878.27;1480244;96;21126;-69
2021/12/18 12:30:45;;;;;;;51.40;34.03;;;;;;;0.90;100.00;99879.22;1528816;93;21110;-67
2021/12/18 12:33:29;;;;;;;24.70;16.62;;;;;;;0.89;100.00;99874.38;1517395;91;21123;-69
2021/12/18 12:36:05;;;;;;;27.63;15.33;;;;;;;0.85;100.00;99876.03;1542645;93;21068;-68
2021/12/18 12:38:37;;;;;;;27.30;15.67;;;;;;;0.83;100.00;99877.97;1515198;93;21075;-69
2021/12/18 12:41:28;;;;;;;20.33;10.27;;;;;;;0.81;100.00;99874.58;1497225;94;21087;-67
2021/12/18 12:43:58;;;;;;;21.70;11.20;;;;;;;0.81;100.00;99875.91;1517730;94;21124;-68
2021/12/18 12:46:25;;;;;;;34.57;22.07;;;;;;;0.81;100.00;99880.73;1515243;93;21075;-67
2021/12/18 12:49:08;;;;;;;35.33;23.13;;;;;;;0.78;100.00;99870.34;1516383;94;21578;-67
2021/12/18 12:52:08;;;;;;;60.03;37.53;;;;;;;0.75;100.00;99874.06;1499089;94;21112;-68
2021/12/18 12:55:03;;;;;;;53.90;37.63;;;;;;;0.73;100.00;99870.66;1496771;95;21074;-69
2021/12/18 12:57:34;;;;;;;74.77;56.03;;;;;;;0.72;100.00;99876.09;1518794;94;21040;-68
2021/12/18 13:00:10;;;;;;;37.87;26.90;;;;;;;0.69;100.00;99873.19;1522387;94;21112;-67
2021/12/18 13:02:40;;;;;;;45.33;30.73;;;;;;;0.67;100.00;99876.91;1516084;94;21157;-70
2021/12/18 13:05:11;;;;;;;53.03;35.17;;;;;;;0.64;100.00;99881.12;1465912;97;21547;-71
2021/12/18 13:07:55;;;;;;;65.07;31.00;;;;;;;0.60;100.00;99883.15;1458435;98;21057;-68
2021/12/18 13:10:31;;;;;;;84.37;49.43;;;;;;;0.59;100.00;99885.45;1465747;96;21097;-69
2021/12/18 13:13:11;;;;;;;60.07;38.30;;;;;;;0.56;100.00;99882.52;1426567;101;21145;-69
2021/12/18 13:16:07;;;;;;;126.87;60.43;;;;;;;0.55;100.00;99882.66;1426715;100;21108;-68
2021/12/18 13:18:47;;;;;;;51.53;34.93;;;;;;;0.52;100.00;99885.05;1419312;99;21670;-69
2021/12/18 13:21:18;;;;;;;63.40;43.90;;;;;;;0.50;100.00;99888.80;1431337;98;21624;-67
2021/12/18 13:23:53;;;;;;;48.07;34.30;;;;;;;0.48;100.00;99892.89;1422413;101;21150;-68
2021/12/18 13:26:38;;;;;;;40.80;30.27;;;;;;;0.48;100.00;99888.02;1445444;99;21088;-68
2021/12/18 13:29:24;;;;;;;49.90;36.97;;;;;;;0.46;100.00;99897.94;1423434;98;21628;-69
2021/12/18 13:31:54;;;;;;;57.07;41.17;;;;;;;0.43;100.00;99903.50;1460482;95;21127;-69
2021/12/18 13:34:27;;;;;;;28.90;21.13;;;;;;;0.42;100.00;99905.77;1469918;97;21159;-69
2021/12/18 13:37:07;;;;;;;22.40;15.00;;;;;;;0.41;100.00;99905.39;1403199;102;21125;-69
2021/12/18 13:39:42;;;;;;;29.27;21.50;;;;;;;0.40;100.00;99905.03;1370867;104;21180;-69
2021/12/18 13:42:13;;;;;;;21.83;13.67;;;;;;;0.37;100.00;99901.64;1372002;102;21159;-70
2021/12/18 13:44:50;;;;;;;28.57;19.80;;;;;;;0.33;100.00;99903.28;1359989;105;21176;-68
2021/12/18 13:47:29;;;;;;;13.87;8.03;;;;;;;0.31;100.00;99906.53;1350491;105;21140;-68
2021/12/18 13:50:11;;;;;;;22.33;12.43;;;;;;;0.30;100.00;99907.03;1350058;105;21151;-70
2021/12/18 13:52:51;;;;;;;25.23;16.70;;;;;;;0.27;100.00;99913.88;1352771;105;21634;-69
2021/12/18 13:55:33;;;;;;;22.23;13.83;;;;;;;0.25;100.00;99912.27;1360618;104;21142;-66
2021/12/18 13:58:18;;;;;;;22.80;13.05;;;;;;;0.22;100.00;99914.69;1353436;105;21177;-69
2021/12/18 14:01:07;;;;;;;20.83;11.43;;;;;;;0.22;100.00;99915.17;1361791;102;21129;-67
2021/12/18 14:03:47;;;;;;;24.40;15.70;;;;;;;0.22;100.00;99917.83;1401726;102;21123;-68
2021/12/18 14:06:39;;;;;;;18.47;9.60;;;;;;;0.20;100.00;99920.59;1396358;102;21155;-68
2021/12/18 14:09:23;;;;;;;23.57;14.03;;;;;;;0.20;100.00;99919.27;1413917;98;21081;-66
2021/12/18 14:12:05;;;;;;;17.27;8.50;;;;;;;0.20;100.00;99919.27;1458650;98;21121;-69
2021/12/18 14:14:42;;;;;;;15.10;7.22;;;;;;;0.20;100.00;99910.45;1456580;95;21518;-70
2021/12/18 14:17:27;;;;;;;12.93;5.83;;;;;;;0.20;100.00;99914.44;1458599;98;21053;-68
2021/12/18 14:20:11;;;;;;;16.17;7.50;;;;;;;0.17;100.00;99914.16;1458689;98;21064;-69
2021/12/18 14:22:38;;;;;;;15.33;7.37;;;;;;;0.16;100.00;99914.64;1458572;97;21061;-66
2021/12/18 14:25:08;;;;;;;13.57;6.20;;;;;;;0.13;100.00;99915.34;1487659;94;21096;-69
2021/12/18 14:27:42;;;;;;;15.07;6.33;;;;;;;0.11;100.00;99915.93;1527988;94;21082;-70
2021/12/18 14:30:29;;;;;;;15.70;6.80;;;;;;;0.10;100.00;99919.53;1527987;94;21489;-68
2021/12/18 14:33:08;;;;;;;12.57;5.40;;;;;;;0.10;100.00;99920.86;1491643;94;21176;-67
2021/12/18 14:35:50;;;;;;;18.87;7.83;;;;;;;0.10;100.00;99926.17;1574046;90;21117;-67
2021/12/18 14:38:17;;;;;;;23.57;8.10;;;;;;;0.09;100.00;99925.80;1581322;90;21069;-68
2021/12/18 14:40:44;;;;;;;25.60;9.63;;;;;;;0.08;100.00;99919.63;1566653;90;21519;-68
2021/12/18 14:43:14;;;;;;;15.90;7.67;;;;;;;0.10;100.00;99927.02;1582594;90;21094;-67
2021/12/18 14:45:40;;;;;;;20.33;10.00;;;;;;;0.09;100.00;99920.48;1583452;90;21077;-68
2021/12/18 14:48:07;;;;;;;35.53;16.37;;;;;;;0.10;100.00;99930.16;1583671;89;21050;-69
2021/12/18 14:50:48;;;;;;;42.70;16.80;;;;;;;0.09;100.00;99928.00;1604858;89;21481;-68
2021/12/18 14:53:20;;;;;;;43.10;21.03;;;;;;;0.09;100.00;99921.80;1642021;86;21015;-65
2021/12/18 14:55:50;;;;;;;28.47;14.60;;;;;;;0.08;100.00;99932.09;1637340;86;21047;-66
2021/12/18 14:58:31;;;;;;;25.17;11.80;;;;;;;0.09;100.00;99921.80;1653003;86;21023;-67
2021/12/18 15:01:06;;;;;;;24.07;10.97;;;;;;;0.10;100.00;99925.69;1641389;86;21589;-68
2021/12/18 15:03:41;;;;;;;29.47;15.37;;;;;;;0.12;100.00;99923.77;1643397;86;21072;-67
2021/12/18 15:06:26;;;;;;;35.40;21.20;;;;;;;0.14;100.00;99922.34;1646627;86;21512;-67
2021/12/18 15:08:58;;;;;;;42.87;25.67;;;;;;;0.15;100.00;99922.72;1635713;86;21064;-68
2021/12/18 15:11:44;;;;;;;38.07;21.10;;;;;;;0.14;100.00;99931.19;1655561;86;21022;-67
2021/12/18 15:14:24;;;;;;;36.40;18.07;;;;;;;0.14;100.00;99925.87;1640716;86;21084;-65
2021/12/18 15:16:59;;;;;;;34.93;18.03;;;;;;;0.13;100.00;99924.64;1617566;87;21019;-67
2021/12/18 15:19:32;;;;;;;30.53;14.23;;;;;;;0.10;100.00;99926.17;1605319;88;21011;-68
2021/12/18 15:22:09;;;;;;;29.42;12.70;;;;;;;0.06;100.00;99924.22;1602952;87;21096;-67
2021/12/18 15:24:43;;;;;;;27.40;12.82;;;;;;;0.05;100.00;99926.98;1610689;86;21566;-67
2021/12/18 15:27:11;;;;;;;35.50;19.33;;;;;;;0.06;100.00;99926.03;1643373;86;21480;-67
2021/12/18 15:29:41;;;;;;;19.70;7.50;;;;;;;0.06;100.00;99924.70;1637085;86;21553;-68
2021/12/18 15:32:09;;;;;;;20.30;8.13;;;;;;;0.05;100.00;99928.30;1638072;86;21541;-66
2021/12/18 15:34:36;;;;;;;18.90;8.17;;;;;;;0.02;100.00;99934.70;1657392;86;21520;-67
2021/12/18 15:37:09;;;;;;;17.17;6.90;;;;;;;0.01;100.00;99927.66;1654575;86;21042;-67
2021/12/18 15:39:43;;;;;;;21.02;8.95;;;;;;;0.01;100.00;99934.80;1654155;86;20987;-67
2021/12/18 15:42:10;;;;;;;22.50;9.10;;;;;;;-0.03;100.00;99935.00;1650419;86;21074;-67
2021/12/18 15:44:37;;;;;;;20.90;7.97;;;;;;;-0.05;100.00;99945.38;1663654;86;20991;-66
2021/12/18 15:47:05;;;;;;;14.50;7.27;;;;;;;-0.08;100.00;99945.09;1662045;86;20977;-67
2021/12/18 15:49:32;;;;;;;13.73;6.10;;;;;;;-0.09;100.00;99947.86;1616195;88;21004;-66
2021/12/18 15:51:59;;;;;;;9.77;5.20;;;;;;;-0.14;100.00;99956.17;1651577;86;20962;-68
2021/12/18 15:54:26;;;;;;;13.53;6.27;;;;;;;-0.18;100.00;99953.32;1642188;86;21010;-68
2021/12/18 15:56:53;;;;;;;14.00;6.00;;;;;;;-0.22;100.00;99952.68;1646172;86;20981;-66
2021/12/18 15:59:20;;;;;;;11.60;4.87;;;;;;;-0.24;100.00;99959.91;1662301;86;21581;-66
2021/12/18 16:01:47;;;;;;;8.60;3.80;;;;;;;-0.27;100.00;99964.58;1650918;86;20997;-66
2021/12/18 16:04:15;;;;;;;7.10;4.07;;;;;;;-0.30;100.00;99964.78;1655614;86;20979;-67
2021/12/18 16:06:43;;;;;;;8.87;4.40;;;;;;;-0.34;100.00;99969.94;1658375;86;21454;-66
2021/12/18 16:09:10;;;;;;;11.13;5.90;;;;;;;-0.38;100.00;99977.27;1645085;86;21005;-72
2021/12/18 16:11:37;;;;;;;15.07;8.00;;;;;;;-0.40;100.00;99971.20;1655695;86;21469;-75
2021/12/18 16:14:04;;;;;;;9.70;5.07;;;;;;;-0.43;100.00;99978.05;1651418;86;21022;-74
2021/12/18 16:16:31;;;;;;;8.47;4.17;;;;;;;-0.46;100.00;99971.14;1647225;86;21508;-74
2021/12/18 16:18:58;;;;;;;11.47;5.00;;;;;;;-0.47;100.00;99968.59;1663917;86;21050;-74
2021/12/18 16:21:25;;;;;;;9.57;4.67;;;;;;;-0.47;100.00;99973.91;1658735;85;20982;-72
2021/12/18 16:23:52;;;;;;;12.27;5.10;;;;;;;-0.49;100.00;99969.17;1755502;82;21021;-77
2021/12/18 16:26:19;;;;;;;10.13;4.53;;;;;;;-0.51;100.00;99964.41;1748743;82;21011;-78
2021/12/18 16:28:54;;;;;;;17.53;7.77;;;;;;;-0.52;100.00;99972.87;1751338;82;21020;-77
2021/12/18 16:31:20;;;;;;;19.40;11.77;;;;;;;-0.53;100.00;99978.28;1759053;82;20986;-80
2021/12/18 16:33:47;;;;;;;21.93;13.27;;;;;;;-0.55;100.00;99981.52;1729926;82;21018;-79
2021/12/18 16:36:16;;;;;;;11.50;5.57;;;;;;;-0.57;100.00;99973.64;1751765;82;20999;-77
2021/12/18 16:38:44;;;;;;;12.73;5.23;;;;;;;-0.58;100.00;99974.62;1751297;82;21045;-78
2021/12/18 16:41:12;;;;;;;8.70;4.47;;;;;;;-0.59;100.00;99981.71;1751385;82;21492;-78
2021/12/18 16:43:39;;;;;;;10.67;5.13;;;;;;;-0.58;100.00;99970.14;1728243;82;21067;-77
2021/12/18 16:46:10;;;;;;;13.43;8.10;;;;;;;-0.63;100.00;99970.92;1751298;82;21502;-77
2021/12/18 16:48:37;;;;;;;13.03;6.10;;;;;;;-0.66;100.00;99970.27;1649285;87;21015;-78
2021/12/18 16:51:06;;;;;;;14.90;5.80;;;;;;;-0.66;100.00;99967.13;1649544;86;21018;-77
2021/12/18 16:53:35;;;;;;;12.77;5.20;;;;;;;-0.65;100.00;99961.37;1649915;86;21104;-77
2021/12/18 16:56:05;;;;;;;11.53;5.67;;;;;;;-0.64;100.00;99969.70;1649826;86;21030;-77
2021/12/18 16:58:33;;;;;;;11.77;5.40;;;;;;;-0.66;100.00;99962.31;1649961;87;21082;-77
2021/12/18 17:01:03;;;;;;;8.40;4.13;;;;;;;-0.69;100.00;99963.37;1599485;90;21034;-77
2021/12/18 17:03:32;;;;;;;11.30;4.87;;;;;;;-0.71;100.00;99963.09;1599784;89;21552;-78
2021/12/18 17:05:59;;;;;;;11.93;5.67;;;;;;;-0.76;100.00;99971.37;1599878;89;21035;-77
2021/12/18 17:08:28;;;;;;;12.93;5.67;;;;;;;-0.81;100.00;99967.68;1599431;89;21497;-77
2021/12/18 17:10:55;;;;;;;9.53;4.30;;;;;;;-0.84;100.00;99961.72;1599467;89;21083;-78
2021/12/18 17:13:26;;;;;;;22.37;12.77;;;;;;;-0.86;100.00;99963.14;1599449;90;21054;-77
2021/12/18 17:16:14;;;;;;;20.37;12.87;;;;;;;-0.89;100.00;99959.34;1560720;90;21143;-78
2021/12/18 17:22:09;;;;;;;16.77;9.80;;;;;;;-0.94;100.00;99955.30;1449423;98;21173;-76
2021/12/18 17:24:36;;;;;;;13.77;7.23;;;;;;;-0.94;100.00;99957.47;1426125;101;21178;-79
2021/12/18 17:27:06;;;;;;;10.90;6.63;;;;;;;-0.94;100.00;99957.47;1411812;101;21096;-77
2021/12/18 17:29:35;;;;;;;17.83;11.13;;;;;;;-0.94;100.00;99957.47;1446371;99;21164;-78
2021/12/18 17:32:02;;;;;;;9.80;5.70;;;;;;;-0.97;100.00;99955.87;1446340;99;21604;-78
2021/12/18 17:34:29;;;;;;;9.67;5.80;;;;;;;-0.96;100.00;99958.05;1420056;100;21664;-78
2021/12/18 17:36:56;;;;;;;16.17;6.90;;;;;;;-0.94;100.00;99954.81;1442610;100;21100;-76
2021/12/18 17:39:23;;;;;;;8.70;4.67;;;;;;;-0.94;100.00;99949.50;1432533;99;21098;-78
2021/12/18 17:41:50;;;;;;;12.63;6.67;;;;;;;-0.93;100.00;99944.59;1439482;99;21192;-76
2021/12/18 17:44:17;;;;;;;12.30;6.60;;;;;;;-0.93;100.00;99938.44;1468479;98;21089;-78
2021/12/18 17:46:44;;;;;;;11.80;5.97;;;;;;;-0.93;100.00;99937.95;1439414;99;21178;-79
2021/12/18 17:49:11;;;;;;;10.70;5.80;;;;;;;-0.92;100.00;99940.12;1468869;98;21150;-78
2021/12/18 17:51:38;;;;;;;20.80;9.40;;;;;;;-0.92;100.00;99938.80;1438738;99;21119;-78
2021/12/18 17:54:05;;;;;;;16.07;7.83;;;;;;;-0.92;100.00;99934.81;1438832;99;21131;-78
2021/12/18 17:56:33;;;;;;;13.97;6.97;;;;;;;-0.91;100.00;99930.73;1438540;99;21110;-78
2021/12/18 17:59:00;;;;;;;14.50;6.90;;;;;;;-0.92;100.00;99929.05;1561191;91;21027;-77
2021/12/18 18:01:31;;;;;;;19.70;9.63;;;;;;;-0.90;100.00;99927.59;1639034;88;21012;-77
2021/12/18 18:03:59;;;;;;;14.90;7.73;;;;;;;-0.89;100.00;99928.82;1639203;88;21043;-78
2021/12/18 18:06:27;;;;;;;20.57;9.23;;;;;;;-0.89;100.00;99932.80;1638729;87;21050;-77
2021/12/18 18:08:56;;;;;;;11.67;6.57;;;;;;;-0.88;100.00;99925.23;1639036;88;21043;-76
2021/12/18 18:11:25;;;;;;;12.50;6.20;;;;;;;-0.86;100.00;99925.13;1638335;88;21011;-77
2021/12/18 18:13:52;;;;;;;13.10;6.50;;;;;;;-0.86;100.00;99938.41;1638978;88;21087;-77
2021/12/18 18:16:20;;;;;;;16.87;9.63;;;;;;;-0.85;100.00;99930.80;1726939;82;21018;-77
2021/12/18 18:18:54;;;;;;;19.40;11.30;;;;;;;-0.85;100.00;99930.80;1746319;82;21010;-76
2021/12/18 18:21:22;;;;;;;61.17;41.50;;;;;;;-0.85;100.00;99932.13;1746736;82;21070;-76
2021/12/18 18:23:49;;;;;;;68.10;46.07;;;;;;;-0.86;100.00;99930.44;1746603;82;21480;-77
2021/12/18 18:26:15;;;;;;;49.43;34.63;;;;;;;-0.88;100.00;99927.04;1734341;82;20979;-76
2021/12/18 18:28:43;;;;;;;23.73;14.37;;;;;;;-0.87;100.00;99927.40;1746547;82;21005;-77
2021/12/18 18:31:11;;;;;;;17.20;9.07;;;;;;;-0.87;100.00;99930.89;1746802;82;21001;-78
2021/12/18 18:33:39;;;;;;;12.43;6.50;;;;;;;-0.86;100.00;99930.44;1747915;82;20995;-77
2021/12/18 18:36:07;;;;;;;14.00;7.47;;;;;;;-0.87;100.00;99932.22;1753658;82;21011;-77
2021/12/18 18:38:35;;;;;;;11.77;6.77;;;;;;;-0.88;100.00;99927.04;1753940;81;21010;-76
2021/12/18 18:41:06;;;;;;;15.33;7.17;;;;;;;-0.87;100.00;99933.55;1753556;82;21006;-77
2021/12/18 18:43:32;;;;;;;13.13;7.10;;;;;;;-0.87;100.00;99928.73;1753083;82;21002;-78
2021/12/18 18:46:10;;;;;;;11.13;6.13;;;;;;;-0.86;100.00;99926.46;1753249;82;21465;-77
2021/12/18 18:48:34;;;;;;;13.62;7.15;;;;;;;-0.88;100.00;99929.21;1753324;82;20982;-77
2021/12/18 18:51:00;;;;;;;33.13;20.83;;;;;;;-0.90;100.00;99928.47;1753041;82;21065;-77
2021/12/18 18:53:28;;;;;;;28.70;18.90;;;;;;;-0.90;100.00;99936.88;1753617;82;20978;-77
2021/12/18 18:55:54;;;;;;;20.53;10.33;;;;;;;-0.90;100.00;99939.08;1753477;82;21030;-77
2021/12/18 18:58:21;;;;;;;17.57;8.27;;;;;;;-0.90;100.00;99938.21;1753539;82;20974;-77
2021/12/18 19:00:48;;;;;;;16.17;7.50;;;;;;;-0.91;100.00;99933.39;1753585;82;21048;-77
2021/12/18 19:03:17;;;;;;;12.60;6.60;;;;;;;-0.94;100.00;99936.23;1753456;82;20986;-78
2021/12/18 19:05:43;;;;;;;13.17;6.27;;;;;;;-0.97;100.00;99938.63;1753306;82;21022;-76
2021/12/18 19:08:11;;;;;;;13.67;7.13;;;;;;;-0.97;100.00;99938.63;1752738;82;21007;-76
2021/12/18 19:10:39;;;;;;;32.90;22.30;;;;;;;-0.98;100.00;99938.23;1727911;82;21006;-78
2021/12/18 19:13:06;;;;;;;28.70;18.00;;;;;;;-0.99;100.00;99939.69;1753679;82;20955;-77
2021/12/18 19:15:33;;;;;;;15.43;8.17;;;;;;;-0.99;100.00;99935.71;1753509;82;21011;-76